Time;durP1;ratioP1;P1;durP2;ratioP2;P2;SDS_P1;SDS_P2;PMS_P1;PMS_P2;Temp;Humidity;BMP_temperature;BMP_pressure;BME280_temperature;BME280_humidity;BME280_pressure;Samples;Min_cycle;Max_cycle;Signal;HPM_P1;HPM_P2
2022/03/13 00:00:11;;;;;;;;;;;23.10;37.60;;;;;;1556765;75;1903;-65
2022/03/13 00:02:15;;;;;;;;;;;23.10;37.60;;;;;;1553639;75;1546;-65
2022/03/13 00:04:15;;;;;;;;;;;23.10;37.70;;;;;;1547167;75;1596;-68
2022/03/13 00:06:20;;;;;;;;;;;23.00;37.60;;;;;;1554655;76;1173;-65
2022/03/13 00:08:25;;;;;;;;;;;23.10;37.80;;;;;;1559712;75;1945;-66
2022/03/13 00:10:27;;;;;;;;;;;23.10;37.90;;;;;;1547574;75;1803;-68
2022/03/13 00:12:32;;;;;;;;;;;23.10;37.90;;;;;;1548898;75;772;-62
2022/03/13 00:14:34;;;;;;;;;;;23.10;38.00;;;;;;1541836;75;1134;-68
2022/03/13 00:16:36;;;;;;;;;;;23.10;38.10;;;;;;1550413;75;673;-69
2022/03/13 00:18:44;;;;;;;;;;;23.10;38.20;;;;;;1559407;76;750;-68
2022/03/13 00:20:42;;;;;;;;;;;23.10;38.40;;;;;;1554214;75;1939;-68
2022/03/13 00:22:44;;;;;;;;;;;23.20;38.50;;;;;;1553824;75;808;-67
2022/03/13 00:24:46;;;;;;;;;;;23.10;38.50;;;;;;1555798;75;1173;-69
2022/03/13 00:26:49;;;;;;;;;;;23.20;38.50;;;;;;1561069;75;807;-68
2022/03/13 00:28:51;;;;;;;;;;;23.10;38.60;;;;;;1559629;76;730;-68
2022/03/13 00:30:53;;;;;;;;;;;23.20;38.60;;;;;;1556670;75;817;-68
2022/03/13 00:32:55;;;;;;;;;;;23.10;38.60;;;;;;1550961;75;736;-69
2022/03/13 00:34:58;;;;;;;;;;;23.20;38.60;;;;;;1555161;76;1177;-67
2022/03/13 00:37:00;;;;;;;;;;;23.10;38.60;;;;;;1561019;75;792;-67
2022/03/13 00:39:02;;;;;;;;;;;23.10;38.70;;;;;;1547290;76;775;-67
2022/03/13 00:41:04;;;;;;;;;;;23.10;38.70;;;;;;1550461;75;1943;-70
2022/03/13 00:43:07;;;;;;;;;;;23.20;38.80;;;;;;1561245;75;832;-68
2022/03/13 00:45:09;;;;;;;;;;;23.20;38.80;;;;;;1560225;75;1209;-67
2022/03/13 00:47:11;;;;;;;;;;;23.20;38.80;;;;;;1567734;75;723;-67
2022/03/13 00:49:13;;;;;;;;;;;23.20;38.80;;;;;;1560091;76;778;-67
2022/03/13 00:51:15;;;;;;;;;;;23.20;38.80;;;;;;1558879;76;740;-67
2022/03/13 00:53:17;;;;;;;;;;;23.20;38.80;;;;;;1559917;76;723;-67
2022/03/13 00:55:19;;;;;;;;;;;23.20;38.80;;;;;;1558939;76;1117;-67
2022/03/13 00:57:21;;;;;;;;;;;23.20;38.90;;;;;;1559861;76;661;-67
2022/03/13 00:59:23;;;;;;;;;;;23.20;38.90;;;;;;1559993;76;668;-67
2022/03/13 01:01:25;;;;;;;;;;;23.20;38.90;;;;;;1558513;76;1923;-67
2022/03/13 01:03:31;;;;;;;;;;;23.20;38.90;;;;;;1560006;76;644;-71
2022/03/13 01:05:33;;;;;;;;;;;23.20;39.00;;;;;;1540729;76;1472;-68
2022/03/13 01:07:35;;;;;;;;;;;23.20;39.00;;;;;;1560016;76;783;-69
2022/03/13 01:09:37;;;;;;;;;;;23.20;39.10;;;;;;1560001;76;770;-69
2022/03/13 01:11:39;;;;;;;;;;;23.20;39.00;;;;;;1559013;76;790;-68
2022/03/13 01:13:41;;;;;;;;;;;23.20;39.00;;;;;;1559859;76;752;-68
2022/03/13 01:15:45;;;;;;;;;;;23.20;39.00;;;;;;1559908;76;1144;-67
2022/03/13 01:17:47;;;;;;;;;;;23.20;39.20;;;;;;1559969;76;724;-67
2022/03/13 01:19:49;;;;;;;;;;;23.30;39.20;;;;;;1550964;75;792;-66
2022/03/13 01:21:51;;;;;;;;;;;23.20;39.10;;;;;;1550999;75;1943;-66
2022/03/13 01:24:03;;;;;;;;;;;23.30;39.20;;;;;;1589441;74;672;-66
2022/03/13 01:26:22;;;;;;;;;;;23.20;39.30;;;;;;1548170;76;1161;-66
2022/03/13 01:28:24;;;;;;;;;;;23.30;39.50;;;;;;1542988;76;1845;-69
2022/03/13 01:30:26;;;;;;;;;;;23.20;39.40;;;;;;1533811;76;779;-66
2022/03/13 01:32:29;;;;;;;;;;;23.30;39.60;;;;;;1541716;76;707;-65
2022/03/13 01:34:34;;;;;;;;;;;23.20;39.50;;;;;;1550470;75;749;-66
2022/03/13 01:36:36;;;;;;;;;;;23.20;39.50;;;;;;1529066;72;220394;-67
2022/03/13 01:38:39;;;;;;;;;;;23.20;39.60;;;;;;1508227;77;728;-67
2022/03/13 01:40:40;;;;;;;;;;;23.20;39.50;;;;;;1534276;77;1918;-67
2022/03/13 01:42:44;;;;;;;;;;;23.20;39.60;;;;;;1544644;76;1138;-67
2022/03/13 01:44:46;;;;;;;;;;;23.20;39.60;;;;;;1535126;77;1506;-67
2022/03/13 01:46:48;;;;;;;;;;;23.20;39.60;;;;;;1513868;78;769;-67
2022/03/13 01:48:54;;;;;;;;;;;23.30;39.70;;;;;;1505174;79;697;-67
2022/03/13 01:50:56;;;;;;;;;;;23.20;39.50;;;;;;1513145;78;674;-67
2022/03/13 01:52:58;;;;;;;;;;;23.30;39.60;;;;;;1549716;75;1113;-67
2022/03/13 01:54:59;;;;;;;;;;;23.30;39.70;;;;;;1549591;75;713;-67
2022/03/13 01:57:02;;;;;;;;;;;23.30;39.60;;;;;;1549978;76;774;-66
2022/03/13 01:59:04;;;;;;;;;;;23.30;39.70;;;;;;1549792;77;799;-65
2022/03/13 02:01:08;;;;;;;;;;;23.20;39.70;;;;;;1549836;77;1933;-66
2022/03/13 02:03:10;;;;;;;;;;;23.30;39.80;;;;;;1549402;76;1718;-66
2022/03/13 02:05:13;;;;;;;;;;;23.30;39.90;;;;;;1549726;77;712;-66
2022/03/13 02:07:15;;;;;;;;;;;23.30;39.90;;;;;;1548642;77;1715;-67
2022/03/13 02:09:17;;;;;;;;;;;23.20;39.80;;;;;;1550021;75;680;-66
2022/03/13 02:11:19;;;;;;;;;;;23.30;39.90;;;;;;1550615;75;1132;-66
2022/03/13 02:13:21;;;;;;;;;;;23.30;39.90;;;;;;1549666;77;701;-67
2022/03/13 02:15:25;;;;;;;;;;;23.30;39.90;;;;;;1549649;77;650;-66
2022/03/13 02:17:27;;;;;;;;;;;23.20;39.90;;;;;;1549938;77;728;-67
2022/03/13 02:19:29;;;;;;;;;;;23.30;39.90;;;;;;1517165;78;730;-67
2022/03/13 02:21:31;;;;;;;;;;;23.20;39.80;;;;;;1549697;75;1929;-67
2022/03/13 02:23:33;;;;;;;;;;;23.20;39.80;;;;;;1549733;77;916;-67
2022/03/13 02:25:35;;;;;;;;;;;23.20;39.80;;;;;;1549490;77;712;-66
2022/03/13 02:27:37;;;;;;;;;;;23.30;39.90;;;;;;1549862;75;772;-66
2022/03/13 02:29:39;;;;;;;;;;;23.30;40.00;;;;;;1548756;75;776;-66
2022/03/13 02:31:41;;;;;;;;;;;23.30;40.00;;;;;;1551328;75;1122;-66
2022/03/13 02:33:42;;;;;;;;;;;23.30;39.90;;;;;;1563480;75;678;-66
2022/03/13 02:35:46;;;;;;;;;;;23.30;39.90;;;;;;1552579;75;755;-66
2022/03/13 02:37:48;;;;;;;;;;;23.30;39.90;;;;;;1552416;76;658;-66
2022/03/13 02:39:50;;;;;;;;;;;23.40;39.90;;;;;;1552515;76;648;-66
2022/03/13 02:41:52;;;;;;;;;;;23.40;39.90;;;;;;1549616;75;1939;-67
2022/03/13 02:43:54;;;;;;;;;;;23.40;39.90;;;;;;1549010;75;772;-66
2022/03/13 02:45:56;;;;;;;;;;;23.30;39.90;;;;;;1546577;76;797;-67
2022/03/13 02:47:58;;;;;;;;;;;23.40;39.90;;;;;;1517917;78;1173;-67
2022/03/13 02:50:00;;;;;;;;;;;23.40;39.80;;;;;;1548887;77;773;-66
2022/03/13 02:52:03;;;;;;;;;;;23.40;39.90;;;;;;1549904;75;1125;-66
2022/03/13 02:54:05;;;;;;;;;;;23.40;39.90;;;;;;1549668;77;773;-66
2022/03/13 02:56:07;;;;;;;;;;;23.40;40.00;;;;;;1550057;75;669;-66
2022/03/13 02:58:10;;;;;;;;;;;23.30;40.00;;;;;;1549565;77;574;-66
2022/03/13 03:00:12;;;;;;;;;;;23.30;39.90;;;;;;1549768;77;705;-67
2022/03/13 03:02:15;;;;;;;;;;;23.30;40.00;;;;;;1549781;75;1897;-67
2022/03/13 03:04:17;;;;;;;;;;;23.30;40.00;;;;;;1549704;77;744;-66
2022/03/13 03:06:19;;;;;;;;;;;23.30;40.00;;;;;;1549754;77;720;-66
2022/03/13 03:08:25;;;;;;;;;;;23.30;40.00;;;;;;1549798;77;740;-66
2022/03/13 03:10:24;;;;;;;;;;;23.30;40.00;;;;;;1548641;77;1170;-66
2022/03/13 03:12:27;;;;;;;;;;;23.30;39.90;;;;;;1549849;75;1157;-66
2022/03/13 03:14:30;;;;;;;;;;;23.30;39.90;;;;;;1549499;76;756;-67
2022/03/13 03:16:31;;;;;;;;;;;23.30;39.90;;;;;;1549855;77;725;-66
2022/03/13 03:18:33;;;;;;;;;;;23.30;40.00;;;;;;1549859;77;776;-67
2022/03/13 03:20:35;;;;;;;;;;;23.30;40.00;;;;;;1549891;77;717;-67
2022/03/13 03:22:37;;;;;;;;;;;23.30;40.10;;;;;;1549540;75;1959;-67
2022/03/13 03:24:39;;;;;;;;;;;23.30;40.00;;;;;;1549497;77;674;-67
2022/03/13 03:26:41;;;;;;;;;;;23.30;40.10;;;;;;1549778;77;956;-67
2022/03/13 03:28:44;;;;;;;;;;;23.40;40.10;;;;;;1551140;75;712;-67
2022/03/13 03:30:46;;;;;;;;;;;23.50;40.10;;;;;;1552633;76;668;-67
2022/03/13 03:32:48;;;;;;;;;;;23.60;40.10;;;;;;1551304;75;1113;-67
2022/03/13 03:34:50;;;;;;;;;;;23.60;40.00;;;;;;1549778;77;683;-68
2022/03/13 03:36:53;;;;;;;;;;;23.50;40.00;;;;;;1549947;77;755;-67
2022/03/13 03:38:55;;;;;;;;;;;23.40;40.10;;;;;;1549889;77;787;-67
2022/03/13 03:40:57;;;;;;;;;;;23.40;40.20;;;;;;1563422;75;581;-67
2022/03/13 03:42:59;;;;;;;;;;;23.30;40.20;;;;;;1574554;74;1950;-67
2022/03/13 03:45:02;;;;;;;;;;;23.30;40.20;;;;;;1553857;75;794;-67
2022/03/13 03:47:04;;;;;;;;;;;23.30;40.60;;;;;;1549885;76;761;-66
2022/03/13 03:49:06;;;;;;;;;;;23.30;40.70;;;;;;1549897;77;724;-67
2022/03/13 03:51:08;;;;;;;;;;;23.20;40.80;;;;;;1549698;77;931;-67
2022/03/13 03:53:10;;;;;;;;;;;23.20;40.90;;;;;;1549964;77;642;-67
2022/03/13 03:55:11;;;;;;;;;;;23.20;40.90;;;;;;1549615;77;719;-67
2022/03/13 03:57:13;;;;;;;;;;;23.20;41.00;;;;;;1549936;77;747;-67
2022/03/13 03:59:15;;;;;;;;;;;23.20;41.00;;;;;;1550006;77;720;-67
2022/03/13 04:01:17;;;;;;;;;;;23.20;41.00;;;;;;1549764;75;1133;-67
2022/03/13 04:03:19;;;;;;;;;;;23.20;41.00;;;;;;1549269;76;1899;-67
2022/03/13 04:05:23;;;;;;;;;;;23.20;41.00;;;;;;1549883;77;719;-67
2022/03/13 04:07:25;;;;;;;;;;;23.20;41.10;;;;;;1549836;77;587;-67
2022/03/13 04:09:26;;;;;;;;;;;23.20;41.00;;;;;;1550033;77;665;-67
2022/03/13 04:11:28;;;;;;;;;;;23.30;41.00;;;;;;1549917;75;1161;-68
2022/03/13 04:13:33;;;;;;;;;;;23.30;40.90;;;;;;1549824;77;690;-67
2022/03/13 04:15:34;;;;;;;;;;;23.20;40.80;;;;;;1549640;76;1581;-68
2022/03/13 04:17:36;;;;;;;;;;;23.30;40.80;;;;;;1549876;77;692;-67
2022/03/13 04:19:38;;;;;;;;;;;23.30;40.70;;;;;;1549945;77;744;-67
2022/03/13 04:21:41;;;;;;;;;;;23.30;40.70;;;;;;1549661;75;1945;-67
2022/03/13 04:23:43;;;;;;;;;;;23.30;40.60;;;;;;1549865;77;699;-68
2022/03/13 04:25:45;;;;;;;;;;;23.30;40.60;;;;;;1549662;77;726;-67
2022/03/13 04:27:47;;;;;;;;;;;23.30;40.50;;;;;;1549919;77;734;-67
2022/03/13 04:29:49;;;;;;;;;;;23.30;40.50;;;;;;1550028;77;768;-68
2022/03/13 04:31:52;;;;;;;;;;;23.30;40.40;;;;;;1550081;77;1125;-67
2022/03/13 04:33:54;;;;;;;;;;;23.40;40.30;;;;;;1551392;75;772;-67
2022/03/13 04:36:00;;;;;;;;;;;23.30;40.30;;;;;;1552741;76;563;-68
2022/03/13 04:38:00;;;;;;;;;;;23.30;40.30;;;;;;1552409;76;1637;-67
2022/03/13 04:40:03;;;;;;;;;;;23.40;40.50;;;;;;1552713;76;800;-67
2022/03/13 04:42:05;;;;;;;;;;;23.30;40.50;;;;;;1551764;75;1943;-67
2022/03/13 04:44:14;;;;;;;;;;;23.30;40.50;;;;;;1547738;75;1113;-67
2022/03/13 04:46:11;;;;;;;;;;;23.30;40.50;;;;;;1543162;77;1563;-67
2022/03/13 04:48:13;;;;;;;;;;;23.30;40.50;;;;;;1544630;77;741;-67
2022/03/13 04:50:14;;;;;;;;;;;23.30;40.50;;;;;;1544727;77;772;-67
2022/03/13 04:52:16;;;;;;;;;;;23.30;40.50;;;;;;1548279;75;1163;-67
2022/03/13 04:54:18;;;;;;;;;;;23.40;40.40;;;;;;1549570;77;724;-67
2022/03/13 04:56:20;;;;;;;;;;;23.30;40.40;;;;;;1549941;77;701;-67
2022/03/13 04:58:23;;;;;;;;;;;23.30;40.40;;;;;;1549899;77;708;-67
2022/03/13 05:00:26;;;;;;;;;;;23.30;40.30;;;;;;1549918;75;651;-67
2022/03/13 05:02:28;;;;;;;;;;;23.40;40.60;;;;;;1549970;75;1927;-67
2022/03/13 05:04:31;;;;;;;;;;;23.40;40.50;;;;;;1549756;77;675;-67
2022/03/13 05:06:38;;;;;;;;;;;23.30;40.40;;;;;;1549857;77;744;-67
2022/03/13 05:08:40;;;;;;;;;;;23.40;40.40;;;;;;1549846;77;673;-67
2022/03/13 05:10:43;;;;;;;;;;;23.30;40.80;;;;;;1549832;77;751;-67
2022/03/13 05:12:46;;;;;;;;;;;23.30;40.90;;;;;;1575424;74;1164;-67
2022/03/13 05:14:48;;;;;;;;;;;23.40;40.80;;;;;;1576673;75;579;-67
2022/03/13 05:16:51;;;;;;;;;;;23.30;40.80;;;;;;1576688;75;784;-68
2022/03/13 05:18:53;;;;;;;;;;;23.40;40.80;;;;;;1576759;75;827;-67
2022/03/13 05:20:55;;;;;;;;;;;23.40;40.90;;;;;;1565005;75;733;-68
2022/03/13 05:22:56;;;;;;;;;;;23.40;40.70;;;;;;1549802;75;1933;-68
2022/03/13 05:24:58;;;;;;;;;;;23.40;40.70;;;;;;1549600;77;768;-68
2022/03/13 05:27:00;;;;;;;;;;;23.40;40.70;;;;;;1549977;76;764;-67
2022/03/13 05:29:02;;;;;;;;;;;23.40;40.60;;;;;;1551614;75;1064;-67
2022/03/13 05:31:04;;;;;;;;;;;23.40;40.70;;;;;;1552693;76;758;-67
2022/03/13 05:33:06;;;;;;;;;;;23.40;40.70;;;;;;1552622;75;1107;-67
2022/03/13 05:35:09;;;;;;;;;;;23.40;40.70;;;;;;1550274;76;738;-68
2022/03/13 05:37:11;;;;;;;;;;;23.40;40.70;;;;;;1549914;75;764;-68
2022/03/13 05:39:13;;;;;;;;;;;23.50;40.70;;;;;;1549888;77;770;-67
2022/03/13 05:41:15;;;;;;;;;;;23.40;40.60;;;;;;1549863;75;1144;-67
2022/03/13 05:43:18;;;;;;;;;;;23.40;40.70;;;;;;1549645;77;1927;-67
2022/03/13 05:45:20;;;;;;;;;;;23.40;40.60;;;;;;1546579;75;847;-67
2022/03/13 05:47:22;;;;;;;;;;;23.40;40.60;;;;;;1546535;77;773;-67
2022/03/13 05:49:24;;;;;;;;;;;23.50;40.70;;;;;;1546574;77;792;-67
2022/03/13 05:51:26;;;;;;;;;;;23.50;40.70;;;;;;1546547;75;1140;-67
2022/03/13 05:53:28;;;;;;;;;;;23.50;40.80;;;;;;1553625;75;705;-67
2022/03/13 05:55:30;;;;;;;;;;;23.50;40.80;;;;;;1552677;75;728;-67
2022/03/13 05:57:32;;;;;;;;;;;23.50;40.80;;;;;;1549812;77;734;-68
2022/03/13 05:59:35;;;;;;;;;;;23.50;40.70;;;;;;1549976;77;707;-67
2022/03/13 06:01:37;;;;;;;;;;;23.50;40.80;;;;;;1549803;75;1163;-67
2022/03/13 06:03:40;;;;;;;;;;;23.50;40.70;;;;;;1560690;75;1920;-67
2022/03/13 06:05:42;;;;;;;;;;;23.50;40.70;;;;;;1576601;75;772;-67
2022/03/13 06:07:44;;;;;;;;;;;23.40;40.60;;;;;;1576570;74;800;-67
2022/03/13 06:09:46;;;;;;;;;;;23.50;40.70;;;;;;1576746;75;697;-67
2022/03/13 06:11:48;;;;;;;;;;;23.40;40.50;;;;;;1576725;74;1122;-67
2022/03/13 06:13:50;;;;;;;;;;;23.50;40.60;;;;;;1551748;75;756;-67
2022/03/13 06:15:52;;;;;;;;;;;23.50;40.60;;;;;;1550015;76;764;-67
2022/03/13 06:17:57;;;;;;;;;;;23.50;40.60;;;;;;1549903;77;773;-67
2022/03/13 06:19:57;;;;;;;;;;;23.50;40.70;;;;;;1553539;75;1721;-67
2022/03/13 06:21:59;;;;;;;;;;;23.50;40.90;;;;;;1569013;74;1146;-68
2022/03/13 06:24:01;;;;;;;;;;;23.50;41.20;;;;;;1549135;75;1947;-67
2022/03/13 06:26:04;;;;;;;;;;;23.60;41.10;;;;;;1549213;76;1077;-68
2022/03/13 06:28:06;;;;;;;;;;;23.50;41.00;;;;;;1549541;75;663;-67
2022/03/13 06:30:13;;;;;;;;;;;23.50;40.90;;;;;;1549416;77;782;-67
2022/03/13 06:32:15;;;;;;;;;;;23.50;40.80;;;;;;1545514;75;1123;-68
2022/03/13 06:34:16;;;;;;;;;;;23.60;40.90;;;;;;1549082;75;762;-67
2022/03/13 06:36:18;;;;;;;;;;;23.60;40.80;;;;;;1548610;77;696;-68
2022/03/13 06:38:22;;;;;;;;;;;23.60;40.70;;;;;;1549395;75;799;-68
2022/03/13 06:40:24;;;;;;;;;;;23.50;40.80;;;;;;1544835;75;607;-68
2022/03/13 06:42:27;;;;;;;;;;;23.60;40.90;;;;;;1548364;75;1939;-67
2022/03/13 06:44:30;;;;;;;;;;;23.60;40.90;;;;;;1549059;75;819;-67
2022/03/13 06:46:36;;;;;;;;;;;23.60;40.90;;;;;;1547166;75;706;-68
2022/03/13 06:48:36;;;;;;;;;;;23.60;40.80;;;;;;1546644;75;1555;-67
2022/03/13 06:50:38;;;;;;;;;;;23.60;41.00;;;;;;1549009;75;729;-67
2022/03/13 06:52:40;;;;;;;;;;;23.60;41.00;;;;;;1548772;75;1136;-67
2022/03/13 06:54:42;;;;;;;;;;;23.70;40.90;;;;;;1548884;75;885;-67
2022/03/13 06:56:45;;;;;;;;;;;23.70;40.70;;;;;;1547730;75;733;-67
2022/03/13 06:58:47;;;;;;;;;;;23.70;40.60;;;;;;1549785;75;894;-67
2022/03/13 07:00:52;;;;;;;;;;;23.60;40.20;;;;;;1550754;75;727;-67
2022/03/13 07:02:52;;;;;;;;;;;23.70;40.30;;;;;;1548050;75;1921;-67
2022/03/13 07:04:54;;;;;;;;;;;23.70;40.10;;;;;;1547956;75;773;-67
2022/03/13 07:06:56;;;;;;;;;;;23.70;40.10;;;;;;1549162;75;708;-67
2022/03/13 07:08:59;;;;;;;;;;;23.80;40.10;;;;;;1549788;76;663;-67
2022/03/13 07:11:01;;;;;;;;;;;23.70;39.80;;;;;;1547608;77;726;-67
2022/03/13 07:13:03;;;;;;;;;;;23.70;39.70;;;;;;1524171;77;1092;-67
2022/03/13 07:15:10;;;;;;;;;;;23.90;39.60;;;;;;1524108;78;781;-67
2022/03/13 07:17:09;;;;;;;;;;;23.90;39.30;;;;;;1523435;78;1431;-67
2022/03/13 07:19:11;;;;;;;;;;;23.90;39.10;;;;;;1524290;78;724;-67
2022/03/13 07:21:13;;;;;;;;;;;24.00;38.90;;;;;;1534173;75;1121;-67
2022/03/13 07:23:14;;;;;;;;;;;24.00;38.70;;;;;;1549601;75;1928;-67
2022/03/13 07:25:16;;;;;;;;;;;24.00;38.50;;;;;;1552579;75;723;-67
2022/03/13 07:27:18;;;;;;;;;;;24.10;38.60;;;;;;1549604;75;733;-67
2022/03/13 07:29:20;;;;;;;;;;;24.00;38.30;;;;;;1548778;75;777;-67
2022/03/13 07:31:22;;;;;;;;;;;24.10;38.30;;;;;;1549409;75;1122;-67
2022/03/13 07:33:24;;;;;;;;;;;24.00;38.10;;;;;;1559434;75;723;-67
2022/03/13 07:35:27;;;;;;;;;;;24.00;38.10;;;;;;1572245;71;221586;-62
2022/03/13 07:37:29;;;;;;;;;;;24.00;38.10;;;;;;1515059;76;517;-63
2022/03/13 07:39:31;;;;;;;;;;;24.00;38.10;;;;;;1541246;76;732;-61
2022/03/13 07:41:33;;;;;;;;;;;24.00;38.20;;;;;;1531436;77;737;-60
2022/03/13 07:43:35;;;;;;;;;;;24.00;38.10;;;;;;1540836;77;1929;-61
2022/03/13 07:45:36;;;;;;;;;;;24.00;38.20;;;;;;1494521;78;1185;-60
2022/03/13 07:47:38;;;;;;;;;;;23.90;38.20;;;;;;1521442;75;766;-60
2022/03/13 07:49:40;;;;;;;;;;;23.90;38.10;;;;;;1541331;77;727;-61
2022/03/13 07:51:43;;;;;;;;;;;23.90;38.20;;;;;;1541364;77;713;-61
2022/03/13 07:53:45;;;;;;;;;;;23.90;38.20;;;;;;1541325;75;721;-62
2022/03/13 07:55:47;;;;;;;;;;;23.90;38.30;;;;;;1541915;75;1122;-60
2022/03/13 07:57:49;;;;;;;;;;;23.90;38.30;;;;;;1541550;75;767;-60
2022/03/13 07:59:51;;;;;;;;;;;23.90;38.30;;;;;;1542186;75;767;-60
2022/03/13 08:01:53;;;;;;;;;;;23.70;38.30;;;;;;1542084;75;756;-61
2022/03/13 08:03:55;;;;;;;;;;;23.70;38.30;;;;;;1541732;75;1959;-61
2022/03/13 08:05:57;;;;;;;;;;;23.80;38.20;;;;;;1545854;75;1160;-63
2022/03/13 08:07:58;;;;;;;;;;;23.80;38.30;;;;;;1546278;75;782;-61
2022/03/13 08:10:01;;;;;;;;;;;23.70;38.20;;;;;;1542911;75;735;-61
2022/03/13 08:12:03;;;;;;;;;;;23.80;38.30;;;;;;1542896;77;783;-62
2022/03/13 08:14:08;;;;;;;;;;;23.70;38.30;;;;;;1554386;75;747;-61
2022/03/13 08:16:10;;;;;;;;;;;23.70;38.20;;;;;;1544545;75;1126;-61
2022/03/13 08:18:13;;;;;;;;;;;23.70;38.40;;;;;;1541402;77;637;-61
2022/03/13 08:20:15;;;;;;;;;;;23.70;38.40;;;;;;1541154;77;799;-62
2022/03/13 08:22:17;;;;;;;;;;;23.60;38.40;;;;;;1541356;77;799;-61
2022/03/13 08:24:20;;;;;;;;;;;23.60;38.40;;;;;;1541240;75;1922;-62
2022/03/13 08:26:22;;;;;;;;;;;23.60;38.50;;;;;;1541206;77;1066;-62
2022/03/13 08:28:24;;;;;;;;;;;23.60;38.60;;;;;;1541187;77;769;-63
2022/03/13 08:30:26;;;;;;;;;;;23.60;38.60;;;;;;1540785;77;743;-62
2022/03/13 08:32:28;;;;;;;;;;;23.60;38.60;;;;;;1540825;77;736;-61
2022/03/13 08:34:33;;;;;;;;;;;23.60;38.70;;;;;;1542394;75;899;-61
2022/03/13 08:36:40;;;;;;;;;;;23.60;38.70;;;;;;1540710;77;1564;-62
2022/03/13 08:38:42;;;;;;;;;;;23.50;38.80;;;;;;1541246;77;790;-62
2022/03/13 08:40:44;;;;;;;;;;;23.50;38.90;;;;;;1541194;77;765;-62
2022/03/13 08:42:46;;;;;;;;;;;23.60;38.90;;;;;;1541371;75;713;-62
2022/03/13 08:44:48;;;;;;;;;;;23.50;38.90;;;;;;1546345;77;1952;-62
2022/03/13 08:46:49;;;;;;;;;;;23.60;39.00;;;;;;1548572;77;1215;-63
2022/03/13 08:48:51;;;;;;;;;;;23.50;39.00;;;;;;1548028;76;731;-64
2022/03/13 08:50:53;;;;;;;;;;;23.60;39.10;;;;;;1542144;75;773;-61
2022/03/13 08:52:56;;;;;;;;;;;23.60;39.10;;;;;;1533398;77;706;-61
2022/03/13 08:54:58;;;;;;;;;;;23.60;39.30;;;;;;1544339;75;685;-65
2022/03/13 08:57:01;;;;;;;;;;;23.70;39.30;;;;;;1541108;77;1092;-67
2022/03/13 08:59:03;;;;;;;;;;;23.90;39.50;;;;;;1541249;77;723;-65
2022/03/13 09:01:05;;;;;;;;;;;23.90;38.70;;;;;;1541189;77;818;-65
2022/03/13 09:03:07;;;;;;;;;;;23.90;38.30;;;;;;1541291;75;672;-66
2022/03/13 09:05:09;;;;;;;;;;;23.90;38.20;;;;;;1541139;77;1916;-66
2022/03/13 09:07:11;;;;;;;;;;;23.90;38.20;;;;;;1541530;77;1119;-73
2022/03/13 09:09:13;;;;;;;;;;;23.90;38.30;;;;;;1542010;77;704;-65
2022/03/13 09:11:17;;;;;;;;;;;24.00;38.50;;;;;;1541970;75;700;-69
2022/03/13 09:13:18;;;;;;;;;;;24.00;37.70;;;;;;1541183;77;1041;-68
2022/03/13 09:15:20;;;;;;;;;;;24.00;37.60;;;;;;1541078;77;1134;-68
2022/03/13 09:17:22;;;;;;;;;;;24.10;37.40;;;;;;1541033;77;707;-69
2022/03/13 09:19:24;;;;;;;;;;;24.20;36.80;;;;;;1541162;75;715;-70
2022/03/13 09:21:26;;;;;;;;;;;24.20;36.00;;;;;;1542119;76;719;-69
2022/03/13 09:23:28;;;;;;;;;;;24.20;35.80;;;;;;1542578;75;1932;-69
2022/03/13 09:25:31;;;;;;;;;;;24.30;35.70;;;;;;1536498;75;1175;-65
2022/03/13 09:27:33;;;;;;;;;;;24.20;34.70;;;;;;1541113;77;735;-68
2022/03/13 09:29:34;;;;;;;;;;;24.20;35.00;;;;;;1528416;77;773;-67
2022/03/13 09:31:36;;;;;;;;;;;24.20;34.70;;;;;;1526775;78;725;-68
2022/03/13 09:33:38;;;;;;;;;;;24.20;34.70;;;;;;1531105;75;807;-65
2022/03/13 09:35:40;;;;;;;;;;;24.20;34.70;;;;;;1541123;77;1098;-66
2022/03/13 09:37:42;;;;;;;;;;;24.20;33.90;;;;;;1541187;77;785;-65
2022/03/13 09:39:44;;;;;;;;;;;24.20;33.90;;;;;;1541286;77;713;-66
2022/03/13 09:41:46;;;;;;;;;;;24.20;34.10;;;;;;1547049;76;724;-66
2022/03/13 09:43:48;;;;;;;;;;;24.20;32.70;;;;;;1540341;75;1952;-67
2022/03/13 09:45:50;;;;;;;;;;;24.30;33.90;;;;;;1527262;78;1131;-68
2022/03/13 09:47:52;;;;;;;;;;;24.30;33.60;;;;;;1527210;78;646;-66
2022/03/13 09:49:53;;;;;;;;;;;24.30;33.40;;;;;;1528780;75;753;-66
2022/03/13 09:51:55;;;;;;;;;;;24.30;31.60;;;;;;1541731;75;720;-63
2022/03/13 09:53:57;;;;;;;;;;;24.20;32.40;;;;;;1545314;75;825;-62
2022/03/13 09:56:01;;;;;;;;;;;24.20;32.10;;;;;;1546479;77;1095;-62
2022/03/13 09:58:03;;;;;;;;;;;24.20;30.60;;;;;;1549177;77;2306;-64
2022/03/13 10:00:06;;;;;;;;;;;24.10;31.30;;;;;;1549333;77;711;-63
2022/03/13 10:02:08;;;;;;;;;;;24.20;31.80;;;;;;1549218;77;914;-63
2022/03/13 10:04:11;;;;;;;;;;;24.10;31.50;;;;;;1547072;75;1916;-62
2022/03/13 10:06:13;;;;;;;;;;;24.20;32.40;;;;;;1541173;77;1162;-64
2022/03/13 10:08:15;;;;;;;;;;;24.20;32.70;;;;;;1541658;77;775;-63
2022/03/13 10:10:17;;;;;;;;;;;24.30;32.70;;;;;;1541964;77;760;-65
2022/03/13 10:12:19;;;;;;;;;;;24.40;32.70;;;;;;1541889;75;821;-66
2022/03/13 10:14:21;;;;;;;;;;;24.50;32.50;;;;;;1541319;75;759;-63
2022/03/13 10:16:24;;;;;;;;;;;24.50;32.50;;;;;;1540938;77;1142;-63
2022/03/13 10:18:26;;;;;;;;;;;24.50;32.30;;;;;;1538070;77;1834;-64
2022/03/13 10:20:28;;;;;;;;;;;24.60;32.30;;;;;;1541234;75;697;-64
2022/03/13 10:22:30;;;;;;;;;;;24.50;32.10;;;;;;1546007;76;705;-63
2022/03/13 10:24:37;;;;;;;;;;;24.50;32.10;;;;;;1546021;75;1954;-64
2022/03/13 10:26:39;;;;;;;;;;;24.40;32.10;;;;;;1541050;77;1829;-64
2022/03/13 10:28:42;;;;;;;;;;;24.40;32.10;;;;;;1543248;77;720;-64
2022/03/13 10:30:44;;;;;;;;;;;24.30;32.00;;;;;;1545657;77;738;-64
2022/03/13 10:32:46;;;;;;;;;;;24.30;31.80;;;;;;1542073;75;707;-64
2022/03/13 10:34:58;;;;;;;;;;;24.30;31.90;;;;;;1504148;78;1190;-64
2022/03/13 10:37:01;;;;;;;;;;;24.30;31.80;;;;;;1540646;77;1052;-65
2022/03/13 10:39:04;;;;;;;;;;;24.20;31.70;;;;;;1540824;77;729;-65
2022/03/13 10:41:12;;;;;;;;;;;24.30;31.90;;;;;;1542335;76;763;-63
2022/03/13 10:43:10;;;;;;;;;;;24.30;31.80;;;;;;1544348;75;1577;-62
2022/03/13 10:45:15;;;;;;;;;;;24.40;31.60;;;;;;1528033;75;1906;-63
2022/03/13 10:47:17;;;;;;;;;;;24.40;31.40;;;;;;1536836;75;1092;-65
2022/03/13 10:49:21;;;;;;;;;;;24.50;31.30;;;;;;1500034;78;1136;-63
2022/03/13 10:51:33;;;;;;;;;;;24.50;31.30;;;;;;1541462;75;1984;-62
2022/03/13 10:53:36;;;;;;;;;;;24.30;30.60;;;;;;1541773;77;723;-62
2022/03/13 10:55:38;;;;;;;;;;;24.30;30.50;;;;;;1541736;75;2215;-60
2022/03/13 10:57:42;;;;;;;;;;;24.40;30.90;;;;;;1541826;77;821;-63
2022/03/13 10:59:44;;;;;;;;;;;24.30;30.20;;;;;;1536845;77;1115;-66
2022/03/13 11:01:46;;;;;;;;;;;24.30;29.90;;;;;;1541771;77;731;-65
2022/03/13 11:03:49;;;;;;;;;;;24.30;30.30;;;;;;1541365;75;693;-66
2022/03/13 11:05:51;;;;;;;;;;;24.30;30.70;;;;;;1540469;77;1921;-64
2022/03/13 11:07:53;;;;;;;;;;;24.20;31.40;;;;;;1541386;76;750;-65
2022/03/13 11:09:55;;;;;;;;;;;24.20;31.50;;;;;;1541907;77;705;-64
2022/03/13 11:12:10;;;;;;;;;;;24.20;31.80;;;;;;1541955;75;691;-67
2022/03/13 11:14:01;;;;;;;;;;;24.10;31.90;;;;;;1538226;77;1647;-63
2022/03/13 11:16:09;;;;;;;;;;;24.20;31.90;;;;;;1541687;77;1131;-63
2022/03/13 11:18:09;;;;;;;;;;;24.20;32.10;;;;;;1540369;77;1474;-61
2022/03/13 11:20:10;;;;;;;;;;;24.20;32.20;;;;;;1540985;75;1676;-61
2022/03/13 11:22:12;;;;;;;;;;;24.40;32.00;;;;;;1541034;77;768;-61
2022/03/13 11:24:14;;;;;;;;;;;24.40;31.60;;;;;;1541117;75;1943;-61
2022/03/13 11:26:19;;;;;;;;;;;24.50;31.50;;;;;;1541814;77;1166;-62
2022/03/13 11:28:22;;;;;;;;;;;24.40;31.40;;;;;;1542710;77;769;-61
2022/03/13 11:30:32;;;;;;;;;;;24.40;31.30;;;;;;1545501;77;800;-62
2022/03/13 11:32:38;;;;;;;;;;;24.40;31.20;;;;;;1545483;77;755;-62
2022/03/13 11:34:40;;;;;;;;;;;24.40;31.20;;;;;;1542288;75;740;-62
2022/03/13 11:36:50;;;;;;;;;;;24.40;31.10;;;;;;1541798;77;1130;-61
2022/03/13 11:39:02;;;;;;;;;;;24.40;31.00;;;;;;1540051;77;1045;-61
2022/03/13 11:41:05;;;;;;;;;;;24.40;30.90;;;;;;1542286;76;1810;-61
2022/03/13 11:43:08;;;;;;;;;;;24.30;30.90;;;;;;1515907;77;1077;-61
2022/03/13 11:45:28;;;;;;;;;;;24.40;30.80;;;;;;1547486;77;1921;-61
2022/03/13 11:47:30;;;;;;;;;;;24.30;30.80;;;;;;1548273;77;559;-62
2022/03/13 11:49:34;;;;;;;;;;;24.30;30.70;;;;;;1513565;78;1065;-61
2022/03/13 11:51:36;;;;;;;;;;;24.40;30.70;;;;;;1548495;77;731;-62
2022/03/13 11:53:40;;;;;;;;;;;24.30;30.60;;;;;;1542302;75;709;-62
2022/03/13 11:56:02;;;;;;;;;;;24.40;30.50;;;;;;1541115;75;1114;-61
2022/03/13 11:58:04;;;;;;;;;;;24.40;30.50;;;;;;1541136;77;700;-62
2022/03/13 12:00:14;;;;;;;;;;;24.30;30.50;;;;;;1541019;77;859;-61
2022/03/13 12:02:34;;;;;;;;;;;24.30;30.40;;;;;;1541264;77;662;-62
2022/03/13 12:04:36;;;;;;;;;;;24.20;30.30;;;;;;1517559;75;1915;-63
2022/03/13 12:06:47;;;;;;;;;;;24.20;30.30;;;;;;1541137;77;1157;-62
2022/03/13 12:09:06;;;;;;;;;;;24.20;30.40;;;;;;1538925;77;922;-61
2022/03/13 12:11:09;;;;;;;;;;;24.10;30.20;;;;;;1540808;77;761;-62